Time;durP1;ratioP1;P1;durP2;ratioP2;P2;SDS_P1;SDS_P2;PMS_P1;PMS_P2;Temp;Humidity;BMP_temperature;BMP_pressure;BME280_temperature;BME280_humidity;BME280_pressure;Samples;Min_cycle;Max_cycle;Signal;HPM_P1;HPM_P2
2023/09/04 00:00:03;;;;;;;6.80;6.10;;;;;;;19.68;71.85;100289.94;5029701;28;20450;-76
2023/09/04 00:02:38;;;;;;;6.70;6.00;;;;;;;19.72;71.64;100298.50;5029083;28;20221;-76
2023/09/04 00:05:04;;;;;;;7.20;6.43;;;;;;;19.71;71.50;100296.81;5029053;28;20472;-75
2023/09/04 00:07:30;;;;;;;7.90;7.07;;;;;;;19.69;71.52;100298.78;5029281;28;20202;-76
2023/09/04 00:09:56;;;;;;;8.20;7.47;;;;;;;19.63;71.49;100293.00;5030125;28;20202;-76
2023/09/04 00:12:22;;;;;;;12.67;7.20;;;;;;;19.60;71.38;100298.59;5026962;28;20223;-75
2023/09/04 00:14:47;;;;;;;11.13;7.50;;;;;;;19.57;71.41;100293.53;5028655;28;20438;-76
2023/09/04 00:17:13;;;;;;;8.60;7.27;;;;;;;19.49;71.67;100298.72;5031423;28;20206;-76
2023/09/04 00:19:38;;;;;;;7.47;6.77;;;;;;;19.44;71.64;100290.28;5028145;28;20270;-75
2023/09/04 00:22:05;;;;;;;8.07;7.27;;;;;;;19.37;71.65;100297.16;5030590;28;20224;-76
2023/09/04 00:24:30;;;;;;;8.03;7.23;;;;;;;19.32;71.96;100300.25;5026392;28;20239;-76
2023/09/04 00:26:56;;;;;;;11.47;8.57;;;;;;;19.23;72.40;100301.06;5029345;28;20576;-76
2023/09/04 00:29:22;;;;;;;9.20;7.77;;;;;;;19.21;72.20;100298.53;5026947;28;20236;-76
2023/09/04 00:31:47;;;;;;;8.33;6.80;;;;;;;19.20;72.08;100296.03;5027972;28;20266;-76
2023/09/04 00:34:12;;;;;;;9.90;8.70;;;;;;;19.17;72.43;100296.25;5027633;28;20526;-75
2023/09/04 00:36:38;;;;;;;8.77;7.77;;;;;;;19.16;72.70;100306.09;5007534;28;20484;-75
2023/09/04 00:39:03;;;;;;;10.47;8.70;;;;;;;19.11;72.75;100297.66;5027890;28;20204;-76
2023/09/04 00:41:29;;;;;;;7.53;6.73;;;;;;;19.07;72.95;100298.91;5025837;28;20597;-76
2023/09/04 00:43:54;;;;;;;7.83;7.03;;;;;;;19.06;72.92;100299.03;5027477;28;20283;-76
2023/09/04 00:46:20;;;;;;;8.13;7.27;;;;;;;19.07;72.76;100306.06;5029007;28;20635;-76
2023/09/04 00:48:46;;;;;;;8.37;6.77;;;;;;;19.09;72.43;100296.09;5028418;28;20280;-76
2023/09/04 00:51:12;;;;;;;7.47;6.67;;;;;;;19.12;72.61;100288.72;5028355;28;20207;-76
2023/09/04 00:53:38;;;;;;;7.17;6.47;;;;;;;19.15;72.20;100277.78;5028930;28;20433;-76
2023/09/04 00:56:05;;;;;;;8.63;6.37;;;;;;;19.17;72.06;100280.28;5028951;28;20362;-76
2023/09/04 00:58:30;;;;;;;11.03;6.40;;;;;;;19.17;72.18;100274.97;5024713;28;20201;-76
2023/09/04 01:00:56;;;;;;;9.03;6.97;;;;;;;19.13;72.09;100268.25;5027860;28;20430;-76
2023/09/04 01:03:22;;;;;;;8.43;7.00;;;;;;;19.05;72.40;100260.94;5023651;28;20207;-76
2023/09/04 01:05:48;;;;;;;7.80;6.43;;;;;;;18.99;72.50;100258.81;5025930;28;20447;-76
2023/09/04 01:08:14;;;;;;;7.73;6.97;;;;;;;18.98;72.72;100263.31;5029145;28;20198;-76
2023/09/04 01:10:56;;;;;;;7.90;6.67;;;;;;;18.99;72.70;100245.50;5025847;28;20198;-76
2023/09/04 01:13:35;;;;;;;11.30;7.43;;;;;;;19.01;72.58;100252.38;5024267;28;20434;-76
2023/09/04 01:16:02;;;;;;;7.60;6.80;;;;;;;19.04;72.30;100253.94;5024965;28;21447;-76
2023/09/04 01:18:29;;;;;;;8.73;7.83;;;;;;;19.00;72.27;100249.84;5023323;28;20432;-76
2023/09/04 01:21:02;;;;;;;7.70;6.57;;;;;;;18.94;72.32;100255.72;5029233;28;20468;-76
2023/09/04 01:23:27;;;;;;;11.40;8.30;;;;;;;18.89;72.73;100255.28;5027741;28;20422;-76
2023/09/04 01:25:59;;;;;;;10.07;8.20;;;;;;;18.84;72.87;100257.50;5027612;28;20439;-76
2023/09/04 01:28:42;;;;;;;8.37;7.57;;;;;;;18.73;73.16;100248.59;5027841;28;20659;-76
2023/09/04 01:31:20;;;;;;;9.37;8.37;;;;;;;18.66;73.32;100243.94;5024683;28;20499;-76
2023/09/04 01:33:49;;;;;;;10.13;8.77;;;;;;;18.63;73.25;100244.22;5025498;28;20477;-76
2023/09/04 01:36:17;;;;;;;10.65;8.50;;;;;;;18.62;73.57;100254.03;5023851;28;20428;-75
2023/09/04 01:38:45;;;;;;;11.50;7.90;;;;;;;18.63;73.81;100255.69;5028811;28;20221;-76
2023/09/04 01:41:11;;;;;;;9.37;7.23;;;;;;;18.63;73.73;100252.19;5025492;28;20430;-76
2023/09/04 01:43:37;;;;;;;13.33;7.90;;;;;;;18.60;73.62;100249.81;5028658;28;20423;-76
2023/09/04 01:46:02;;;;;;;10.70;8.27;;;;;;;18.53;73.78;100241.53;5026448;28;20722;-76
2023/09/04 01:48:28;;;;;;;11.90;8.30;;;;;;;18.45;73.94;100247.50;5028185;28;20266;-76
2023/09/04 01:50:54;;;;;;;10.77;9.47;;;;;;;18.38;73.99;100245.50;5026991;28;20273;-76
2023/09/04 01:53:21;;;;;;;12.53;8.73;;;;;;;18.33;74.33;100245.88;5028018;28;20205;-75
2023/09/04 01:55:46;;;;;;;9.27;8.33;;;;;;;18.28;74.55;100243.66;5027934;28;20816;-76
2023/09/04 01:58:12;;;;;;;10.03;9.00;;;;;;;18.25;74.42;100240.38;5024414;28;20930;-76
2023/09/04 02:00:38;;;;;;;11.27;9.73;;;;;;;18.24;74.97;100246.69;5026907;28;20670;-76
2023/09/04 02:03:06;;;;;;;11.40;10.33;;;;;;;18.21;74.82;100231.00;5025821;28;20206;-75
2023/09/04 02:05:37;;;;;;;12.13;9.52;;;;;;;18.18;74.77;100225.97;5026561;28;20439;-76
2023/09/04 02:08:03;;;;;;;12.50;9.53;;;;;;;18.11;75.22;100225.63;5022230;28;20194;-75
2023/09/04 02:10:33;;;;;;;12.30;9.77;;;;;;;18.06;75.15;100225.16;5024058;28;20422;-76
2023/09/04 02:12:59;;;;;;;11.13;9.60;;;;;;;17.89;76.45;100231.91;5024071;28;20709;-76
2023/09/04 02:15:24;;;;;;;15.20;10.93;;;;;;;17.87;76.32;100221.41;5026287;28;20509;-76
2023/09/04 02:17:51;;;;;;;12.07;9.30;;;;;;;17.86;76.10;100234.84;5021471;28;20217;-74
2023/09/04 02:20:17;;;;;;;11.07;9.60;;;;;;;17.81;76.38;100227.25;5026079;28;20203;-74
2023/09/04 02:22:44;;;;;;;10.10;9.10;;;;;;;17.81;76.25;100223.75;5026235;28;20460;-74
2023/09/04 02:25:09;;;;;;;13.67;9.70;;;;;;;17.77;76.28;100223.16;5025088;28;20538;-74
2023/09/04 02:27:35;;;;;;;11.87;9.20;;;;;;;17.78;76.18;100222.16;5023849;28;20456;-74
2023/09/04 02:30:03;;;;;;;13.40;10.40;;;;;;;17.78;76.29;100211.53;5023645;28;20252;-75
2023/09/04 02:32:29;;;;;;;9.97;8.97;;;;;;;17.78;76.35;100211.53;5024215;28;20522;-74
2023/09/04 02:34:54;;;;;;;13.93;10.33;;;;;;;17.73;76.55;100200.44;5023584;28;20452;-73
2023/09/04 02:37:20;;;;;;;10.90;9.70;;;;;;;17.71;76.64;100202.38;5023193;28;20213;-75
2023/09/04 02:39:45;;;;;;;11.60;9.17;;;;;;;17.69;76.83;100191.91;5021013;28;20662;-74
2023/09/04 02:42:11;;;;;;;11.87;9.53;;;;;;;17.69;76.75;100197.22;5025686;28;20221;-75
2023/09/04 02:44:36;;;;;;;12.10;10.43;;;;;;;17.69;76.72;100199.03;5025512;28;20202;-75
2023/09/04 02:47:02;;;;;;;13.20;9.93;;;;;;;17.65;76.63;100190.44;5024764;28;20202;-75
2023/09/04 02:49:29;;;;;;;12.00;9.40;;;;;;;17.63;77.07;100196.88;5038451;28;20186;-74
2023/09/04 02:51:55;;;;;;;13.80;10.93;;;;;;;17.62;77.00;100201.34;5026968;28;20453;-74
2023/09/04 02:54:20;;;;;;;12.10;9.63;;;;;;;17.60;76.94;100191.81;5026717;28;20206;-74
2023/09/04 02:56:45;;;;;;;12.00;9.97;;;;;;;17.58;77.34;100183.13;5026234;28;20225;-73
2023/09/04 02:59:11;;;;;;;15.07;10.77;;;;;;;17.53;77.25;100180.88;5025348;28;21355;-75
2023/09/04 03:01:36;;;;;;;14.63;10.97;;;;;;;17.46;77.65;100183.19;5024984;28;20209;-74
2023/09/04 03:04:02;;;;;;;13.90;11.57;;;;;;;17.45;77.73;100170.88;5025856;28;20828;-74
2023/09/04 03:06:28;;;;;;;14.35;12.13;;;;;;;17.47;77.89;100166.28;5030335;28;20437;-73
2023/09/04 03:08:57;;;;;;;13.20;9.70;;;;;;;17.48;78.02;100167.97;5030694;28;20195;-75
2023/09/04 03:11:22;;;;;;;14.27;11.40;;;;;;;17.48;77.72;100164.47;5030049;28;20515;-75
2023/09/04 03:13:48;;;;;;;14.80;9.80;;;;;;;17.46;77.82;100167.25;5030391;28;20684;-75
2023/09/04 03:16:13;;;;;;;13.13;9.20;;;;;;;17.45;77.67;100167.41;5029795;28;20285;-74
2023/09/04 03:18:39;;;;;;;13.83;9.30;;;;;;;17.43;77.62;100153.38;5031611;28;20282;-75
2023/09/04 03:21:05;;;;;;;12.33;10.50;;;;;;;17.41;77.77;100153.50;5029366;28;20203;-75
2023/09/04 03:23:32;;;;;;;14.17;9.67;;;;;;;17.42;77.63;100162.34;5029716;28;20412;-73
2023/09/04 03:25:58;;;;;;;13.27;9.47;;;;;;;17.40;77.64;100159.81;5047568;28;20518;-75
2023/09/04 03:28:23;;;;;;;17.40;10.27;;;;;;;17.38;77.65;100160.91;5033243;28;20456;-74
2023/09/04 03:30:49;;;;;;;13.70;10.00;;;;;;;17.35;77.54;100156.69;5032399;28;20279;-77
2023/09/04 03:33:21;;;;;;;13.50;10.50;;;;;;;17.25;77.90;100156.63;5029044;28;20241;-77
2023/09/04 03:35:46;;;;;;;14.32;10.55;;;;;;;17.24;77.93;100151.44;5028496;28;20419;-77
2023/09/04 03:38:19;;;;;;;14.30;9.80;;;;;;;17.22;77.98;100146.22;5030989;28;20282;-76
2023/09/04 03:40:54;;;;;;;12.20;9.37;;;;;;;17.19;78.20;100141.19;5028963;28;20414;-76
2023/09/04 03:43:20;;;;;;;17.23;9.97;;;;;;;17.19;77.90;100141.19;5029000;28;21561;-76
2023/09/04 03:45:45;;;;;;;14.03;10.00;;;;;;;17.18;77.80;100139.50;5026920;28;20567;-76
2023/09/04 03:48:11;;;;;;;14.50;8.90;;;;;;;17.10;78.30;100135.81;5031682;28;20197;-79
2023/09/04 03:50:36;;;;;;;14.23;9.80;;;;;;;17.09;78.38;100137.59;5029831;28;20331;-77
2023/09/04 03:53:02;;;;;;;16.13;11.00;;;;;;;17.08;78.42;100137.75;5030984;28;20213;-75
2023/09/04 03:55:35;;;;;;;12.40;11.10;;;;;;;17.06;78.50;100150.28;5026441;28;20582;-75
2023/09/04 03:58:03;;;;;;;11.67;8.97;;;;;;;17.05;78.36;100133.53;5027377;28;20504;-75
2023/09/04 04:00:30;;;;;;;13.47;10.03;;;;;;;17.07;78.32;100144.03;5029003;28;20453;-75
2023/09/04 04:02:57;;;;;;;11.07;8.60;;;;;;;17.07;78.09;100152.00;5026706;28;20457;-80
2023/09/04 04:05:24;;;;;;;13.27;10.70;;;;;;;17.06;78.41;100150.28;5029172;28;20538;-81
2023/09/04 04:07:50;;;;;;;12.00;8.37;;;;;;;17.06;78.32;100158.25;5045244;28;20489;-80
2023/09/04 04:10:18;;;;;;;13.40;9.67;;;;;;;17.05;78.45;100159.22;5030114;28;21287;-79
2023/09/04 04:12:43;;;;;;;10.67;9.23;;;;;;;17.06;78.32;100163.56;5027354;28;20476;-79
2023/09/04 04:15:10;;;;;;;11.90;10.23;;;;;;;17.06;78.35;100156.44;5029810;28;20689;-79
2023/09/04 04:17:36;;;;;;;8.77;7.53;;;;;;;17.06;78.43;100158.25;5024296;28;20252;-82
2023/09/04 04:20:06;;;;;;;19.80;10.10;;;;;;;17.03;78.32;100157.53;5029192;28;20475;-80
2023/09/04 04:22:33;;;;;;;12.87;9.33;;;;;;;17.03;78.45;100162.81;5028239;28;20977;-80
2023/09/04 04:24:58;;;;;;;15.70;9.37;;;;;;;17.01;78.38;100159.47;5026978;28;20472;-78
2023/09/04 04:27:24;;;;;;;12.20;8.60;;;;;;;17.03;78.39;100167.31;5028325;28;20511;-79
2023/09/04 04:29:51;;;;;;;11.03;8.47;;;;;;;17.05;78.23;100169.84;5028691;28;20198;-78
2023/09/04 04:32:17;;;;;;;12.77;8.23;;;;;;;17.05;78.23;100181.28;5025233;28;20257;-79
2023/09/04 04:34:43;;;;;;;9.23;8.33;;;;;;;17.06;78.20;100188.28;5765736;23;21148;-78
2023/09/04 04:37:20;;;;;;;12.00;9.33;;;;;;;17.10;78.16;100189.72;5000861;28;20213;-80
2023/09/04 04:39:50;;;;;;;10.37;8.47;;;;;;;17.13;77.96;100199.25;5000622;28;20644;-78
2023/09/04 04:42:15;;;;;;;10.27;7.03;;;;;;;17.16;77.69;100205.16;5018725;28;20500;-80
2023/09/04 04:44:41;;;;;;;12.13;8.50;;;;;;;17.18;77.58;100200.56;5016005;28;20886;-79
2023/09/04 04:47:07;;;;;;;11.03;8.60;;;;;;;17.21;77.42;100208.28;4990771;28;20198;-80
2023/09/04 04:49:33;;;;;;;14.07;9.37;;;;;;;17.21;77.25;100215.41;5017406;28;20512;-79
2023/09/04 04:51:59;;;;;;;11.77;8.40;;;;;;;17.23;77.34;100202.84;5018867;28;20467;-79
2023/09/04 04:54:25;;;;;;;10.73;6.83;;;;;;;17.24;77.08;100209.84;5018667;28;20460;-79
2023/09/04 04:56:51;;;;;;;10.77;7.30;;;;;;;17.22;77.23;100211.75;5015101;28;20441;-79
2023/09/04 04:59:17;;;;;;;7.90;6.70;;;;;;;17.22;76.97;100214.41;5017750;28;20210;-79
2023/09/04 05:01:45;;;;;;;8.67;7.77;;;;;;;17.23;76.92;100211.66;5016469;28;20415;-79
2023/09/04 05:04:11;;;;;;;10.90;8.50;;;;;;;17.27;76.85;100220.19;5015433;28;20488;-80
2023/09/04 05:06:37;;;;;;;10.38;8.85;;;;;;;17.33;76.67;100213.53;5016513;28;20476;-81
2023/09/04 05:09:05;;;;;;;11.20;9.37;;;;;;;17.36;76.63;100211.50;5016853;28;20206;-80
2023/09/04 05:11:32;;;;;;;13.70;8.33;;;;;;;17.40;76.61;100212.06;4993639;28;20859;-80
2023/09/04 05:13:59;;;;;;;9.67;7.80;;;;;;;17.41;76.25;100209.28;5016387;28;20472;-80
2023/09/04 05:16:26;;;;;;;10.27;7.13;;;;;;;17.43;76.21;100217.13;5015570;28;20456;-80
2023/09/04 05:18:53;;;;;;;11.93;8.73;;;;;;;17.43;75.80;100217.97;5015848;28;21045;-80
2023/09/04 05:21:20;;;;;;;10.93;7.67;;;;;;;17.46;75.75;100224.84;5017385;28;20464;-80
2023/09/04 05:23:47;;;;;;;10.00;8.77;;;;;;;17.47;75.71;100227.38;5017648;28;20976;-80
2023/09/04 05:26:13;;;;;;;10.53;7.30;;;;;;;17.53;75.71;100231.34;5015375;28;20468;-77
2023/09/04 05:28:39;;;;;;;9.13;7.43;;;;;;;17.58;75.59;100228.28;5015492;28;20465;-79
2023/09/04 05:31:04;;;;;;;13.60;7.27;;;;;;;17.64;75.24;100235.75;5018436;28;20518;-79
2023/09/04 05:33:30;;;;;;;10.87;7.50;;;;;;;17.69;74.98;100230.91;5018262;28;20209;-82
2023/09/04 05:35:56;;;;;;;9.20;7.30;;;;;;;17.78;74.78;100237.25;5015873;28;20210;-79
2023/09/04 05:38:22;;;;;;;12.07;7.90;;;;;;;17.84;74.62;100247.41;5018431;28;20194;-79
2023/09/04 05:41:00;;;;;;;11.17;9.30;;;;;;;17.88;74.47;100238.22;5020356;28;20488;-78
2023/09/04 05:43:26;;;;;;;12.10;7.97;;;;;;;17.93;74.12;100233.38;5020869;28;20969;-78
2023/09/04 05:45:52;;;;;;;9.17;7.30;;;;;;;17.99;74.00;100234.66;5021292;28;20519;-78
2023/09/04 05:48:18;;;;;;;8.50;7.57;;;;;;;18.03;73.80;100236.06;5022950;28;20262;-78
2023/09/04 05:50:43;;;;;;;10.37;7.50;;;;;;;18.09;73.73;100238.19;5020442;28;20256;-78
2023/09/04 05:53:09;;;;;;;9.73;7.50;;;;;;;18.14;73.41;100236.00;5023233;28;21088;-78
2023/09/04 05:55:36;;;;;;;10.50;8.30;;;;;;;18.24;73.59;100242.22;5021854;28;20202;-80
2023/09/04 05:58:02;;;;;;;12.40;9.10;;;;;;;18.50;73.26;100236.47;5022344;28;20711;-78
2023/09/04 06:00:28;;;;;;;11.40;7.67;;;;;;;18.94;71.85;100239.75;5019242;28;20984;-79
2023/09/04 06:02:54;;;;;;;6.93;5.83;;;;;;;19.40;70.48;100236.44;5019263;28;20465;-79
2023/09/04 06:05:21;;;;;;;9.90;7.80;;;;;;;19.92;69.21;100238.03;5020526;28;20209;-79
2023/09/04 06:07:47;;;;;;;9.60;7.60;;;;;;;20.57;67.44;100227.47;5018002;28;20458;-80
2023/09/04 06:10:12;;;;;;;11.90;7.10;;;;;;;20.95;65.61;100229.97;5015958;28;20465;-79
2023/09/04 06:12:38;;;;;;;8.40;6.43;;;;;;;21.26;65.04;100226.13;5016059;28;20442;-79
2023/09/04 06:15:04;;;;;;;8.20;6.07;;;;;;;21.62;63.71;100232.34;5018117;28;20209;-80
2023/09/04 06:17:31;;;;;;;8.10;6.63;;;;;;;22.04;62.71;100229.84;5016960;28;20665;-80
2023/09/04 06:19:56;;;;;;;8.03;6.17;;;;;;;22.46;60.82;100230.94;5016198;28;20420;-81
2023/09/04 06:22:22;;;;;;;6.50;5.90;;;;;;;22.74;59.57;100228.91;5018604;28;20504;-80
2023/09/04 06:24:49;;;;;;;7.70;6.87;;;;;;;22.92;57.87;100228.81;5014664;28;20487;-80
2023/09/04 06:27:14;;;;;;;9.77;6.60;;;;;;;22.73;58.14;100230.72;5016267;28;20214;-80
2023/09/04 06:29:40;;;;;;;8.93;8.03;;;;;;;22.48;58.87;100231.63;5016768;28;20431;-80
2023/09/04 06:32:06;;;;;;;12.77;8.43;;;;;;;22.16;59.24;100230.41;5015481;28;20197;-79
2023/09/04 06:34:32;;;;;;;11.40;8.80;;;;;;;21.76;60.68;100238.97;5014775;28;20201;-79
2023/09/04 06:36:57;;;;;;;14.00;10.40;;;;;;;21.40;61.81;100247.84;5016344;28;20436;-79
2023/09/04 06:39:22;;;;;;;11.50;9.07;;;;;;;21.15;62.65;100248.56;5024300;28;20360;-79
2023/09/04 06:41:49;;;;;;;8.20;7.40;;;;;;;20.99;63.14;100239.34;5022813;28;20212;-79
2023/09/04 06:44:17;;;;;;;8.90;7.60;;;;;;;20.89;63.28;100240.41;5018083;28;20300;-78
2023/09/04 06:46:42;;;;;;;11.67;8.27;;;;;;;20.82;63.69;100240.16;5015997;28;21068;-78
2023/09/04 06:49:08;;;;;;;12.50;9.30;;;;;;;20.78;63.69;100238.78;5010529;28;20288;-78
2023/09/04 06:51:34;;;;;;;11.30;9.30;;;;;;;20.74;63.81;100245.41;5013195;28;20207;-78
2023/09/04 06:53:59;;;;;;;14.50;10.77;;;;;;;20.70;64.34;100242.16;5011635;28;20643;-79
2023/09/04 06:56:24;;;;;;;11.40;9.30;;;;;;;20.63;64.38;100240.22;5011346;28;20244;-78
2023/09/04 06:58:50;;;;;;;10.70;8.27;;;;;;;20.53;64.63;100242.94;5014108;28;20224;-78
2023/09/04 07:01:15;;;;;;;12.70;9.40;;;;;;;20.43;65.27;100244.78;5011885;28;20201;-79
2023/09/04 07:03:41;;;;;;;17.00;10.33;;;;;;;20.38;65.66;100247.88;5012865;28;21078;-78
2023/09/04 07:06:07;;;;;;;15.03;10.80;;;;;;;20.38;65.89;100241.69;5012361;28;20857;-79
2023/09/04 07:08:32;;;;;;;16.37;9.93;;;;;;;20.33;66.13;100240.31;5012291;28;20480;-78
2023/09/04 07:10:58;;;;;;;14.60;9.47;;;;;;;20.34;66.33;100243.84;5011327;28;20837;-79
2023/09/04 07:13:23;;;;;;;14.53;8.83;;;;;;;20.41;66.27;100231.56;5013069;28;20248;-78
2023/09/04 07:15:49;;;;;;;17.93;10.87;;;;;;;20.49;65.99;100226.34;5011058;28;20195;-79
2023/09/04 07:18:14;;;;;;;14.67;9.50;;;;;;;20.49;66.01;100239.69;5012308;28;20584;-79
2023/09/04 07:20:39;;;;;;;13.60;10.63;;;;;;;20.50;66.04;100238.72;5012100;28;20198;-78
2023/09/04 07:23:05;;;;;;;14.30;10.83;;;;;;;20.57;65.98;100232.81;5009841;28;21251;-79
2023/09/04 07:25:31;;;;;;;15.57;11.07;;;;;;;20.63;65.92;100232.22;5011867;28;20692;-79
2023/09/04 07:27:56;;;;;;;15.60;11.00;;;;;;;20.72;65.47;100226.03;5013016;28;20206;-79
2023/09/04 07:30:22;;;;;;;15.03;8.57;;;;;;;21.10;64.79;100230.28;5011126;28;20458;-79
2023/09/04 07:32:47;;;;;;;14.07;10.53;;;;;;;21.49;64.01;100214.00;5008586;28;20670;-79
2023/09/04 07:35:13;;;;;;;13.40;10.40;;;;;;;21.91;62.89;100216.03;5009889;28;20239;-78
2023/09/04 07:37:38;;;;;;;13.27;10.00;;;;;;;22.34;61.49;100214.34;5012941;28;20402;-79
2023/09/04 07:40:05;;;;;;;14.27;10.63;;;;;;;22.82;60.31;100210.19;5010889;28;20549;-79
2023/09/04 07:42:30;;;;;;;12.37;9.77;;;;;;;23.34;58.96;100203.81;5014078;28;20213;-79
2023/09/04 07:44:55;;;;;;;10.23;9.23;;;;;;;23.97;57.64;100203.16;5013391;28;20885;-79
2023/09/04 07:47:21;;;;;;;10.67;9.10;;;;;;;24.66;55.98;100200.00;5017321;28;20329;-79
2023/09/04 07:49:46;;;;;;;9.80;8.73;;;;;;;25.32;54.09;100187.88;5018716;28;20649;-79
2023/09/04 07:52:12;;;;;;;11.37;8.10;;;;;;;25.72;53.05;100191.25;5018330;28;20202;-79
2023/09/04 07:58:31;;;;;;;9.03;7.67;;;;;;;26.63;50.90;100183.94;4998990;28;20202;-79
2023/09/04 08:00:57;;;;;;;10.17;7.77;;;;;;;27.00;49.99;100182.06;4996872;28;20449;-80
2023/09/04 08:03:22;;;;;;;9.77;6.70;;;;;;;27.38;48.94;100187.25;4999703;28;20192;-79
2023/09/04 08:05:47;;;;;;;9.47;7.63;;;;;;;27.75;47.81;100188.00;4998790;28;20441;-79
2023/09/04 08:08:13;;;;;;;8.40;7.40;;;;;;;27.93;47.20;100177.59;5002106;28;20520;-79
2023/09/04 08:10:42;;;;;;;10.00;6.97;;;;;;;28.14;46.63;100178.53;5001332;28;20199;-79
2023/09/04 08:13:09;;;;;;;8.27;6.77;;;;;;;28.40;45.77;100181.41;5001448;28;20978;-79
2023/09/04 08:15:35;;;;;;;7.30;6.50;;;;;;;28.61;45.37;100185.06;5000769;28;20436;-79
2023/09/04 08:18:01;;;;;;;7.43;6.27;;;;;;;28.79;44.44;100176.41;5003307;28;20448;-79
2023/09/04 08:20:26;;;;;;;8.60;6.80;;;;;;;28.92;44.14;100175.59;5000432;28;20749;-79
2023/09/04 08:22:52;;;;;;;7.93;6.00;;;;;;;29.15;43.22;100176.13;5002756;28;20456;-79
2023/09/04 08:25:17;;;;;;;6.93;6.23;;;;;;;29.17;43.18;100176.75;5001043;28;20217;-80
2023/09/04 08:27:42;;;;;;;6.83;6.20;;;;;;;29.43;42.84;100177.81;5001048;28;20322;-79
2023/09/04 08:30:08;;;;;;;6.80;6.03;;;;;;;29.72;42.29;100179.31;5000519;28;20866;-79
2023/09/04 08:32:34;;;;;;;8.60;6.70;;;;;;;29.75;41.82;100178.91;5001770;28;20210;-79
2023/09/04 08:34:59;;;;;;;6.37;5.70;;;;;;;29.92;41.40;100182.00;4998506;28;20288;-78
2023/09/04 08:37:24;;;;;;;6.97;6.20;;;;;;;30.09;41.24;100177.81;5000606;28;20496;-79
2023/09/04 08:39:50;;;;;;;7.77;5.80;;;;;;;30.13;40.95;100168.22;5000283;28;20569;-79
2023/09/04 08:42:16;;;;;;;5.73;5.13;;;;;;;29.88;41.38;100169.94;5000785;28;20279;-79
2023/09/04 08:44:43;;;;;;;5.80;5.00;;;;;;;29.74;41.42;100175.34;4998820;28;20248;-79
2023/09/04 08:47:10;;;;;;;5.57;4.80;;;;;;;29.60;41.38;100173.69;4998610;28;20217;-79
2023/09/04 08:49:37;;;;;;;5.07;4.57;;;;;;;29.43;41.93;100169.69;4998252;28;20492;-79
2023/09/04 08:52:04;;;;;;;6.03;5.53;;;;;;;29.27;41.94;100163.66;5002019;28;20439;-79
2023/09/04 08:54:29;;;;;;;8.03;5.67;;;;;;;29.07;42.23;100165.50;4999345;28;20492;-79
2023/09/04 08:56:56;;;;;;;6.07;5.47;;;;;;;28.98;42.94;100158.59;4999067;28;20477;-80
2023/09/04 08:59:21;;;;;;;6.60;5.83;;;;;;;28.61;43.47;100160.75;5001440;28;20198;-79
2023/09/04 09:01:48;;;;;;;5.50;4.33;;;;;;;28.34;44.34;100162.47;5002303;28;21247;-78
2023/09/04 09:04:14;;;;;;;7.17;5.03;;;;;;;28.22;44.80;100168.44;4998200;28;20225;-79
2023/09/04 09:06:40;;;;;;;5.97;5.00;;;;;;;28.09;45.46;100167.53;4999993;28;20433;-79
2023/09/04 09:09:07;;;;;;;6.43;5.00;;;;;;;28.03;45.65;100161.06;5002810;28;21497;-78
2023/09/04 09:11:33;;;;;;;6.87;5.40;;;;;;;28.05;45.99;100161.66;5001986;28;20194;-79
2023/09/04 09:13:58;;;;;;;6.23;5.70;;;;;;;28.00;45.71;100153.31;5004090;28;20835;-79
2023/09/04 09:16:24;;;;;;;6.60;5.17;;;;;;;27.71;46.41;100154.34;5001422;28;20574;-79
2023/09/04 09:18:53;;;;;;;5.90;4.40;;;;;;;27.39;47.17;100147.66;5002111;28;20682;-79
2023/09/04 09:21:27;;;;;;;5.53;4.97;;;;;;;27.22;48.11;100152.44;5001056;28;21015;-79
2023/09/04 09:24:06;;;;;;;5.57;4.70;;;;;;;27.24;48.17;100145.00;5001251;28;20457;-79
2023/09/04 09:26:32;;;;;;;5.07;4.57;;;;;;;27.30;48.05;100153.19;5000029;28;20496;-79
2023/09/04 09:28:57;;;;;;;4.63;3.90;;;;;;;27.26;47.90;100153.75;5000501;28;20592;-79
2023/09/04 09:31:23;;;;;;;4.77;3.73;;;;;;;27.17;47.74;100149.50;5000813;28;20190;-79
2023/09/04 09:33:49;;;;;;;5.87;4.10;;;;;;;27.20;47.42;100147.28;5001624;28;20907;-79
2023/09/04 09:36:15;;;;;;;4.00;3.60;;;;;;;27.18;47.32;100145.78;4997299;28;20471;-79
2023/09/04 09:38:46;;;;;;;4.73;4.03;;;;;;;27.24;47.62;100145.00;4999991;28;20205;-79
2023/09/04 09:41:15;;;;;;;5.70;4.93;;;;;;;27.39;47.58;100142.25;4999893;28;21059;-79
2023/09/04 09:43:41;;;;;;;5.07;4.53;;;;;;;27.56;47.11;100140.94;5001870;28;20508;-78
2023/09/04 09:46:08;;;;;;;4.10;3.70;;;;;;;27.70;46.71;100136.47;4996327;28;21187;-79
2023/09/04 09:48:36;;;;;;;4.30;3.73;;;;;;;27.82;46.78;100139.50;5000418;28;20497;-79
2023/09/04 09:51:02;;;;;;;4.40;4.00;;;;;;;27.73;46.70;100136.94;4999368;28;20469;-79
2023/09/04 09:53:43;;;;;;;4.20;3.73;;;;;;;27.62;47.01;100139.31;4998756;28;20457;-79
2023/09/04 09:56:11;;;;;;;3.80;3.50;;;;;;;27.56;46.80;100132.84;4993408;28;20194;-79
2023/09/04 09:58:38;;;;;;;3.70;3.40;;;;;;;27.60;46.57;100139.53;4997665;28;20457;-79
2023/09/04 10:01:04;;;;;;;4.33;3.20;;;;;;;27.64;46.73;100126.47;4999751;28;21172;-80
2023/09/04 10:03:30;;;;;;;3.40;2.83;;;;;;;27.73;46.48;100125.28;4999533;28;20437;-79
2023/09/04 10:06:02;;;;;;;2.97;2.70;;;;;;;27.92;45.91;100127.34;4997204;28;20464;-80
2023/09/04 10:08:30;;;;;;;4.73;3.03;;;;;;;28.04;45.79;100129.47;4999233;28;21162;-80
2023/09/04 10:10:56;;;;;;;4.40;3.10;;;;;;;28.10;45.29;100118.69;5000178;28;21083;-79
2023/09/04 10:13:27;;;;;;;3.13;2.67;;;;;;;28.16;44.38;100112.47;4999886;28;20463;-79
2023/09/04 10:15:57;;;;;;;2.90;2.60;;;;;;;28.20;44.47;100111.06;4997697;28;20461;-80
2023/09/04 10:18:30;;;;;;;2.67;2.47;;;;;;;28.24;44.28;100103.38;4998330;28;21280;-78
2023/09/04 10:20:57;;;;;;;3.33;3.03;;;;;;;28.17;44.18;100097.97;5000565;28;20469;-79
2023/09/04 10:23:28;;;;;;;3.33;3.03;;;;;;;28.19;44.01;100095.91;5000487;28;20535;-78
2023/09/04 10:26:07;;;;;;;3.50;2.97;;;;;;;28.16;44.23;100095.44;4998606;28;20467;-79
2023/09/04 10:28:54;;;;;;;3.13;2.93;;;;;;;28.23;44.41;100091.75;4999427;28;20441;-79
2023/09/04 10:31:23;;;;;;;3.30;2.97;;;;;;;28.31;44.23;100092.63;4998934;28;21233;-79
2023/09/04 10:33:50;;;;;;;3.03;2.83;;;;;;;28.34;43.52;100078.72;4999014;28;20456;-79
2023/09/04 10:36:16;;;;;;;3.60;2.90;;;;;;;28.26;43.77;100071.59;5001180;28;20706;-79
2023/09/04 10:38:42;;;;;;;3.20;2.70;;;;;;;28.26;43.76;100071.59;4998083;28;20457;-78
2023/09/04 10:41:08;;;;;;;3.37;3.07;;;;;;;28.27;43.90;100065.16;4999018;28;20465;-79
2023/09/04 10:43:43;;;;;;;3.13;2.83;;;;;;;28.20;43.75;100065.16;4997075;28;20535;-80
2023/09/04 10:46:10;;;;;;;3.47;3.17;;;;;;;28.19;43.96;100070.75;4999584;28;21195;-79
2023/09/04 10:48:50;;;;;;;3.00;2.80;;;;;;;28.30;43.76;100062.06;4999884;28;21300;-78
2023/09/04 10:51:35;;;;;;;3.10;2.57;;;;;;;28.42;44.01;100059.63;5000083;28;21122;-79
2023/09/04 10:54:07;;;;;;;2.97;2.67;;;;;;;28.45;43.89;100062.75;4996624;28;20999;-81
2023/09/04 10:56:52;;;;;;;6.23;3.63;;;;;;;28.54;44.08;100051.78;5002528;28;20441;-80
2023/09/04 10:59:17;;;;;;;3.83;3.20;;;;;;;28.60;43.74;100053.69;5005027;28;20553;-79
2023/09/04 11:01:43;;;;;;;7.53;3.07;;;;;;;28.58;43.80;100044.94;5006350;28;20556;-80
2023/09/04 11:04:08;;;;;;;4.67;2.87;;;;;;;28.54;43.95;100044.50;5004227;28;20413;-80
2023/09/04 11:06:38;;;;;;;3.73;2.63;;;;;;;28.62;43.99;100041.59;5008906;28;20207;-80
2023/09/04 11:09:04;;;;;;;4.63;3.40;;;;;;;28.72;43.76;100045.78;5009607;28;20762;-80
2023/09/04 11:11:30;;;;;;;4.63;2.70;;;;;;;28.67;42.98;100044.53;5009415;28;20460;-80
2023/09/04 11:13:57;;;;;;;8.27;3.20;;;;;;;28.72;43.13;100040.38;5013201;28;20481;-80
2023/09/04 11:16:23;;;;;;;2.70;2.50;;;;;;;28.78;43.19;100034.97;5011632;28;20861;-80
2023/09/04 11:19:00;;;;;;;3.50;3.20;;;;;;;28.86;43.00;100029.38;5012257;28;20456;-80
2023/09/04 11:21:31;;;;;;;2.80;2.60;;;;;;;28.88;43.31;100024.59;5013053;28;20456;-80